Time;durP1;ratioP1;P1;durP2;ratioP2;P2;SDS_P1;SDS_P2;PMS_P1;PMS_P2;Temp;Humidity;BMP_temperature;BMP_pressure;BME280_temperature;BME280_humidity;BME280_pressure;Samples;Min_cycle;Max_cycle;Signal;HPM_P1;HPM_P2
2022/02/20 20:57:28;;;;;;;;;;;7.90;99.90;;;;;;5083248;22;19935;-84
2022/02/20 21:00:21;;;;;;;;;;;7.50;99.90;;;;;;5044965;28;19925;-84
2022/02/20 21:03:32;;;;;;;;;;;7.40;99.90;;;;;;5049937;28;20256;-84
2022/02/20 21:06:29;;;;;;;;;;;7.40;99.90;;;;;;5049084;28;19931;-84
2022/02/20 21:10:14;;;;;;;;;;;7.60;99.90;;;;;;5019530;28;19935;-83
2022/02/20 21:13:04;;;;;;;;;;;6.80;99.90;;;;;;5065316;28;19929;-83
2022/02/20 21:16:14;;;;;;;;;;;7.70;99.90;;;;;;5024395;28;19925;-83
2022/02/20 21:19:09;;;;;;;;;;;7.50;99.90;;;;;;5048109;28;20294;-84
2022/02/20 21:21:50;;;;;;;;;;;7.20;99.90;;;;;;5064104;28;19925;-84
2022/02/20 21:24:30;;;;;;;;;;;7.20;99.90;;;;;;5064392;28;19935;-83
2022/02/20 21:27:00;;;;;;;;;;;7.30;99.90;;;;;;5048594;28;19929;-83
2022/02/20 21:29:49;;;;;;;;;;;;;;;;;;;;;
2022/02/20 21:32:44;;;;;;;;;;;7.50;99.90;;;;;;5063949;28;19924;-86
2022/02/20 21:39:35;;;;;;;;;;;7.20;99.90;;;;;;5042306;28;19931;-84
2022/02/20 21:42:18;;;;;;;;;;;7.10;99.90;;;;;;5059427;28;19929;-85
2022/02/20 21:45:47;;;;;;;;;;;6.90;99.90;;;;;;5033864;28;19925;-84
2022/02/20 21:48:38;;;;;;;;;;;7.00;99.90;;;;;;5063197;28;19943;-84
2022/02/20 21:54:57;;;;;;;;;;;7.00;99.90;;;;;;5058625;28;19933;-84
2022/02/20 21:58:01;;;;;;;;;;;7.30;99.90;;;;;;5030607;28;19925;-85
2022/02/20 22:04:14;;;;;;;;;;;7.00;99.90;;;;;;5023072;28;19929;-84
2022/02/20 22:06:53;;;;;;;;;;;7.00;99.90;;;;;;5010417;28;19933;-84
2022/02/20 22:10:05;;;;;;;;;;;7.10;99.90;;;;;;5003508;28;19939;-83
2022/02/20 22:12:46;;;;;;;;;;;6.80;99.90;;;;;;5001704;28;19933;-83
2022/02/20 22:15:16;;;;;;;;;;;5.20;99.90;;;;;;5023200;28;19934;-82
2022/02/20 22:17:55;;;;;;;;;;;6.70;99.90;;;;;;5010865;28;19930;-83
2022/02/20 22:20:35;;;;;;;;;;;6.40;99.90;;;;;;5009369;28;19940;-84
2022/02/20 22:23:06;;;;;;;;;;;7.60;99.90;;;;;;5047566;28;19929;-83
2022/02/20 22:25:41;;;;;;;;;;;6.70;99.90;;;;;;5011170;28;19936;-83
2022/02/20 22:28:23;;;;;;;;;;;5.10;99.90;;;;;;4992050;28;19940;-83
2022/02/20 22:31:03;;;;;;;;;;;6.50;99.90;;;;;;4996948;28;19926;-85
2022/02/20 22:34:01;;;;;;;;;;;6.40;99.90;;;;;;5017345;28;19930;-84
2022/02/20 22:36:35;;;;;;;;;;;6.30;99.90;;;;;;5003516;28;19929;-83
2022/02/20 22:39:07;;;;;;;;;;;5.00;99.90;;;;;;5002513;28;19932;-83
2022/02/20 22:41:39;;;;;;;;;;;6.30;99.90;;;;;;4990112;28;19936;-84
2022/02/20 22:44:08;;;;;;;;;;;6.30;99.90;;;;;;5042045;28;20146;-81
2022/02/20 22:46:36;;;;;;;;;;;6.20;99.90;;;;;;5039177;28;19960;-83
2022/02/20 22:49:04;;;;;;;;;;;5.50;99.90;;;;;;5021034;28;19929;-83
2022/02/20 22:51:33;;;;;;;;;;;6.20;99.90;;;;;;4986894;28;19930;-83
2022/02/20 22:54:05;;;;;;;;;;;4.50;99.90;;;;;;5007015;28;19926;-84
2022/02/20 22:56:34;;;;;;;;;;;6.30;99.90;;;;;;5009988;28;19943;-83
2022/02/20 22:59:05;;;;;;;;;;;6.10;99.90;;;;;;5034909;28;19940;-82
2022/02/20 23:01:36;;;;;;;;;;;6.10;99.90;;;;;;5010134;28;19929;-83
2022/02/20 23:04:26;;;;;;;;;;;5.70;99.90;;;;;;5041650;28;19929;-84
2022/02/20 23:06:57;;;;;;;;;;;6.00;99.90;;;;;;4987247;28;19932;-84
2022/02/20 23:09:28;;;;;;;;;;;6.10;99.90;;;;;;5031798;28;19925;-82
2022/02/20 23:11:57;;;;;;;;;;;6.00;99.90;;;;;;5013550;28;19935;-82
2022/02/20 23:14:26;;;;;;;;;;;6.00;99.90;;;;;;5042526;28;19933;-82
2022/02/20 23:16:54;;;;;;;;;;;4.50;99.90;;;;;;5046005;28;19929;-82
2022/02/20 23:19:24;;;;;;;;;;;6.10;99.90;;;;;;5026628;28;19929;-82
2022/02/20 23:21:57;;;;;;;;;;;6.00;99.90;;;;;;5013562;28;19935;-84
2022/02/20 23:24:26;;;;;;;;;;;6.00;99.90;;;;;;5011143;28;20224;-81
2022/02/20 23:26:57;;;;;;;;;;;5.90;99.90;;;;;;5010135;28;19925;-81
2022/02/20 23:29:25;;;;;;;;;;;6.00;99.90;;;;;;5028208;28;19936;-84
2022/02/20 23:31:54;;;;;;;;;;;6.00;99.90;;;;;;5046263;28;19939;-83
2022/02/20 23:34:22;;;;;;;;;;;6.00;99.90;;;;;;5049159;28;19936;-82
2022/02/20 23:36:54;;;;;;;;;;;5.90;99.90;;;;;;5031088;28;19929;-83
2022/02/20 23:39:23;;;;;;;;;;;5.90;99.90;;;;;;5041320;28;20351;-82
2022/02/20 23:41:52;;;;;;;;;;;5.30;99.90;;;;;;5046402;28;19936;-82
2022/02/20 23:44:20;;;;;;;;;;;5.00;99.90;;;;;;5044343;28;19940;-82
2022/02/20 23:46:48;;;;;;;;;;;5.90;99.90;;;;;;5043374;28;19925;-82
2022/02/20 23:49:16;;;;;;;;;;;5.90;99.90;;;;;;5029613;28;19925;-81
2022/02/20 23:51:45;;;;;;;;;;;5.80;99.90;;;;;;5029146;28;19993;-82
2022/02/20 23:54:13;;;;;;;;;;;5.80;99.90;;;;;;5030109;28;19931;-84
2022/02/20 23:56:42;;;;;;;;;;;5.90;99.90;;;;;;5047648;28;19932;-82
2022/02/20 23:59:13;;;;;;;;;;;5.80;99.90;;;;;;5043962;28;19935;-82
